createdAt,value
2022-12-18T00:00:33.482Z,8.30
2022-12-18T00:03:03.160Z,8.27
2022-12-18T00:05:34.161Z,8.60
2022-12-18T00:08:09.328Z,8.27
2022-12-18T00:10:39.219Z,9.23
2022-12-18T00:13:10.233Z,9.32
2022-12-18T00:15:40.569Z,8.35
2022-12-18T00:18:10.444Z,9.13
2022-12-18T00:20:40.597Z,8.68
2022-12-18T00:23:12.877Z,8.52
2022-12-18T00:25:42.443Z,9.05
2022-12-18T00:28:12.043Z,8.95
2022-12-18T00:30:41.709Z,9.07
2022-12-18T00:33:11.316Z,8.85
2022-12-18T00:35:40.884Z,8.43
2022-12-18T00:38:13.050Z,8.23
2022-12-18T00:40:42.650Z,8.45
2022-12-18T00:43:09.698Z,8.55
2022-12-18T00:45:39.426Z,8.05
2022-12-18T00:48:09.207Z,8.35
2022-12-18T00:50:39.221Z,8.20
2022-12-18T00:53:08.925Z,8.10
2022-12-18T00:55:41.492Z,8.27
2022-12-18T00:58:11.166Z,8.88
2022-12-18T01:00:41.842Z,8.98
2022-12-18T01:03:16.878Z,8.63
2022-12-18T01:05:47.319Z,9.05
2022-12-18T01:08:16.924Z,8.55
2022-12-18T01:10:49.525Z,8.48
2022-12-18T01:13:19.209Z,8.43
2022-12-18T01:15:52.482Z,8.93
2022-12-18T01:18:22.150Z,8.70
2022-12-18T01:20:51.910Z,8.73
2022-12-18T01:23:21.494Z,8.38
2022-12-18T01:25:53.700Z,9.00
2022-12-18T01:28:23.294Z,8.55
2022-12-18T01:30:52.867Z,8.65
2022-12-18T01:33:23.032Z,8.68
2022-12-18T01:35:52.643Z,9.50
2022-12-18T01:38:24.212Z,9.25
2022-12-18T01:41:00.872Z,8.70
2022-12-18T01:43:45.657Z,8.52
2022-12-18T01:46:15.472Z,8.90
2022-12-18T01:48:46.651Z,8.88
2022-12-18T01:51:16.563Z,9.77
2022-12-18T01:53:47.914Z,9.02
2022-12-18T01:56:24.585Z,8.73
2022-12-18T01:58:58.953Z,8.38
2022-12-18T02:01:29.339Z,9.32
2022-12-18T02:03:59.525Z,9.00
2022-12-18T02:06:33.654Z,8.02
2022-12-18T02:09:12.727Z,8.75
2022-12-18T02:11:52.709Z,8.80
2022-12-18T02:14:26.867Z,9.60
2022-12-18T02:17:03.154Z,9.02
2022-12-18T02:23:17.644Z,8.90
2022-12-18T02:26:05.336Z,8.60
2022-12-18T02:28:37.840Z,8.35
2022-12-18T02:31:12.595Z,8.80
2022-12-18T02:33:44.032Z,8.18
2022-12-18T02:36:15.796Z,8.38
2022-12-18T02:38:46.583Z,8.30
2022-12-18T02:41:21.967Z,8.27
2022-12-18T02:43:53.236Z,7.80
2022-12-18T02:46:32.897Z,7.93
2022-12-18T02:49:12.262Z,8.30
2022-12-18T02:51:49.955Z,8.07
2022-12-18T02:54:26.758Z,7.85
2022-12-18T02:57:02.599Z,7.95
2022-12-18T02:59:35.851Z,7.47
2022-12-18T03:02:09.040Z,7.93
2022-12-18T03:04:43.952Z,7.68
2022-12-18T03:07:20.539Z,7.28
2022-12-18T03:09:54.172Z,7.80
2022-12-18T03:12:30.607Z,7.53
2022-12-18T03:15:04.769Z,7.53
2022-12-18T03:17:36.659Z,6.93
2022-12-18T03:20:10.050Z,7.22
2022-12-18T03:22:41.687Z,7.57
2022-12-18T03:25:13.750Z,7.63
2022-12-18T03:27:51.278Z,7.53
2022-12-18T03:30:23.103Z,7.43
2022-12-18T03:33:00.122Z,7.70
2022-12-18T03:35:32.629Z,7.57
2022-12-18T03:38:02.257Z,7.60
2022-12-18T03:40:39.932Z,7.25
2022-12-18T03:43:15.585Z,7.30
2022-12-18T03:45:47.422Z,7.53
2022-12-18T03:48:21.383Z,7.35
2022-12-18T03:50:56.594Z,7.40
2022-12-18T03:55:59.089Z,7.20
2022-12-18T03:58:37.184Z,7.28
2022-12-18T04:01:19.628Z,7.90
2022-12-18T04:03:50.651Z,7.05
2022-12-18T04:06:22.364Z,7.00
2022-12-18T04:08:52.322Z,7.15
2022-12-18T04:11:24.991Z,6.63
2022-12-18T04:13:59.186Z,6.28
2022-12-18T04:19:02.138Z,5.80
2022-12-18T04:21:36.723Z,6.78
2022-12-18T04:24:06.959Z,6.28
2022-12-18T04:26:39.378Z,6.47
2022-12-18T04:29:19.845Z,6.22
2022-12-18T04:31:50.510Z,6.18
2022-12-18T04:34:20.437Z,6.63
2022-12-18T04:36:55.959Z,6.15
2022-12-18T04:39:26.351Z,5.80
2022-12-18T04:41:59.392Z,6.43
2022-12-18T04:44:31.587Z,6.07
2022-12-18T04:47:01.144Z,6.50
2022-12-18T04:49:30.725Z,6.25
2022-12-18T04:52:00.255Z,6.25
2022-12-18T04:54:29.800Z,6.15
2022-12-18T04:56:59.316Z,5.82
2022-12-18T04:59:32.726Z,6.50
2022-12-18T05:02:02.373Z,5.72
2022-12-18T05:04:32.043Z,5.82
2022-12-18T05:07:01.629Z,6.10
2022-12-18T05:09:31.213Z,5.90
2022-12-18T05:12:00.771Z,6.03
2022-12-18T05:14:32.899Z,6.03
2022-12-18T05:17:02.483Z,6.28
2022-12-18T05:19:32.088Z,5.68
2022-12-18T05:22:02.461Z,5.65
2022-12-18T05:24:32.045Z,5.63
2022-12-18T05:27:01.601Z,5.85
2022-12-18T05:29:33.777Z,5.70
2022-12-18T05:32:03.333Z,5.75
2022-12-18T05:34:34.479Z,6.10
2022-12-18T05:37:04.038Z,6.25
2022-12-18T05:39:33.594Z,6.15
2022-12-18T05:42:03.253Z,6.30
2022-12-18T05:44:35.388Z,6.15
2022-12-18T05:47:05.250Z,6.00
2022-12-18T05:49:35.136Z,5.85
2022-12-18T05:52:04.746Z,6.40
2022-12-18T05:54:34.722Z,6.70
2022-12-18T05:57:04.328Z,6.80
2022-12-18T05:59:36.558Z,6.22
2022-12-18T06:02:06.340Z,6.28
2022-12-18T06:04:35.981Z,6.60
2022-12-18T06:07:05.579Z,7.00
2022-12-18T06:09:35.674Z,6.45
2022-12-18T06:12:05.243Z,6.65
2022-12-18T06:14:37.407Z,6.38
2022-12-18T06:17:06.995Z,6.65
2022-12-18T06:19:36.544Z,6.95
2022-12-18T06:22:06.134Z,7.45
2022-12-18T06:24:35.718Z,7.00
2022-12-18T06:27:05.297Z,7.20
2022-12-18T06:29:37.455Z,7.18
2022-12-18T06:32:07.570Z,7.43
2022-12-18T06:34:37.466Z,6.47
2022-12-18T06:37:07.155Z,6.70
2022-12-18T06:39:36.699Z,6.80
2022-12-18T06:42:07.260Z,7.07
2022-12-18T06:44:39.440Z,7.03
2022-12-18T06:47:09.101Z,6.78
2022-12-18T06:49:38.637Z,6.40
2022-12-18T06:52:08.252Z,6.40
2022-12-18T06:54:37.874Z,6.25
2022-12-18T06:57:07.481Z,6.90
2022-12-18T06:59:39.663Z,6.90
2022-12-18T07:02:09.645Z,7.70
2022-12-18T07:04:39.951Z,7.60
2022-12-18T07:07:09.550Z,6.68
2022-12-18T07:09:39.159Z,7.20
2022-12-18T07:12:09.103Z,6.80
2022-12-18T07:14:41.274Z,6.53
2022-12-18T07:17:11.077Z,6.70
2022-12-18T07:19:40.688Z,7.30
2022-12-18T07:22:10.290Z,7.47
2022-12-18T07:24:39.904Z,7.38
2022-12-18T07:27:09.907Z,7.22
2022-12-18T07:29:42.632Z,7.30
2022-12-18T07:32:12.224Z,7.30
2022-12-18T07:34:42.211Z,8.38
2022-12-18T07:37:11.928Z,7.60
2022-12-18T07:39:41.506Z,8.15
2022-12-18T07:42:23.695Z,7.82
2022-12-18T07:44:57.121Z,7.93
2022-12-18T07:47:26.985Z,7.40
2022-12-18T07:49:56.866Z,7.40
2022-12-18T07:52:26.986Z,8.02
2022-12-18T07:54:56.724Z,8.00
2022-12-18T07:57:50.193Z,7.93
2022-12-18T08:00:19.752Z,7.82
2022-12-18T08:02:51.132Z,7.47
2022-12-18T08:05:21.676Z,7.32
2022-12-18T08:07:51.240Z,7.72
2022-12-18T08:10:21.042Z,7.80
2022-12-18T08:12:53.200Z,7.78
2022-12-18T08:15:25.375Z,7.88
2022-12-18T08:17:54.969Z,7.65
2022-12-18T08:20:24.727Z,7.65
2022-12-18T08:22:55.200Z,7.93
2022-12-18T08:25:25.182Z,8.23
2022-12-18T08:27:54.857Z,7.68
2022-12-18T08:30:27.094Z,7.15
2022-12-18T08:32:57.249Z,7.95
2022-12-18T08:35:29.529Z,8.15
2022-12-18T08:38:01.184Z,7.38
2022-12-18T08:40:30.722Z,7.97
2022-12-18T08:43:13.003Z,7.88
2022-12-18T08:45:45.289Z,8.70
2022-12-18T08:48:20.618Z,6.95
2022-12-18T08:50:57.902Z,7.68
2022-12-18T08:53:36.637Z,7.55
2022-12-18T08:56:06.608Z,7.78
2022-12-18T08:58:36.218Z,8.05
2022-12-18T09:01:10.521Z,8.20
2022-12-18T09:03:41.089Z,8.88
2022-12-18T09:06:11.288Z,7.28
2022-12-18T09:08:41.348Z,7.78
2022-12-18T09:11:16.996Z,7.40
2022-12-18T09:13:46.631Z,7.47
2022-12-18T09:16:19.323Z,7.35
2022-12-18T09:18:49.010Z,7.13
2022-12-18T09:21:20.244Z,7.15
2022-12-18T09:23:53.587Z,7.72
2022-12-18T09:26:23.354Z,7.23
2022-12-18T09:28:53.270Z,7.50
2022-12-18T09:31:26.650Z,7.28
2022-12-18T09:33:56.253Z,7.40
2022-12-18T09:36:25.798Z,7.30
2022-12-18T09:38:55.758Z,6.97
2022-12-18T09:41:43.474Z,6.82
2022-12-18T09:44:22.637Z,8.95
2022-12-18T09:47:00.996Z,7.25
2022-12-18T09:49:32.876Z,6.80
2022-12-18T09:52:06.577Z,7.70
2022-12-18T09:54:39.564Z,7.80
2022-12-18T09:57:16.431Z,8.13
2022-12-18T09:59:48.648Z,6.75
2022-12-18T10:02:23.360Z,6.97
2022-12-18T10:05:06.351Z,7.10
2022-12-18T10:07:42.328Z,7.03
2022-12-18T10:10:19.353Z,7.80
2022-12-18T10:12:59.533Z,7.40
2022-12-18T10:15:38.086Z,6.93
2022-12-18T10:18:22.836Z,7.38
2022-12-18T10:20:55.160Z,7.55
2022-12-18T10:23:29.062Z,7.68
2022-12-18T10:26:04.799Z,7.10
2022-12-18T10:28:35.462Z,7.20
2022-12-18T10:31:06.299Z,7.00
2022-12-18T10:33:38.681Z,7.30
2022-12-18T10:36:08.685Z,6.85
2022-12-18T10:38:42.713Z,7.03
2022-12-18T10:41:29.722Z,7.05
2022-12-18T10:44:15.675Z,7.70
2022-12-18T10:46:46.062Z,7.07
2022-12-18T10:49:32.783Z,7.30
2022-12-18T10:52:11.386Z,7.30
2022-12-18T10:54:41.932Z,7.30
2022-12-18T10:57:18.455Z,6.85
2022-12-18T10:59:55.876Z,7.10
2022-12-18T11:02:38.414Z,7.50
2022-12-18T11:05:27.684Z,7.60
2022-12-18T11:07:58.338Z,7.20
2022-12-18T11:10:32.204Z,7.28
2022-12-18T11:13:14.501Z,6.70
2022-12-18T11:15:44.634Z,7.32
2022-12-18T11:18:21.493Z,6.97
2022-12-18T11:20:59.054Z,8.07
2022-12-18T11:23:29.623Z,7.75
2022-12-18T11:26:01.517Z,7.55
2022-12-18T11:28:41.534Z,7.15
2022-12-18T11:31:21.271Z,7.85
2022-12-18T11:34:26.948Z,7.63
2022-12-18T11:36:49.594Z,7.55
2022-12-18T11:39:22.476Z,7.55
2022-12-18T11:42:09.212Z,7.60
2022-12-18T11:44:43.899Z,7.68
2022-12-18T11:47:17.629Z,7.63
2022-12-18T11:49:47.224Z,7.50
2022-12-18T11:52:22.890Z,7.47
2022-12-18T11:54:55.553Z,7.07
2022-12-18T11:57:36.897Z,7.95
2022-12-18T12:00:15.908Z,8.05
2022-12-18T12:02:59.309Z,8.07
2022-12-18T12:05:43.095Z,8.68
2022-12-18T12:08:19.492Z,8.60
2022-12-18T12:10:56.692Z,8.80
2022-12-18T12:13:44.239Z,9.10
2022-12-18T12:16:21.414Z,8.88
2022-12-18T12:19:00.823Z,7.50
2022-12-18T12:21:36.520Z,8.90
2022-12-18T12:24:18.392Z,9.05
2022-12-18T12:26:53.488Z,9.27
2022-12-18T12:29:33.606Z,8.70
2022-12-18T12:32:11.336Z,9.70
2022-12-18T12:34:45.600Z,8.98
2022-12-18T12:39:51.161Z,9.13
2022-12-18T12:42:40.079Z,9.07
2022-12-18T12:45:11.190Z,10.10
2022-12-18T12:47:43.554Z,9.18
2022-12-18T12:50:17.871Z,9.35
2022-12-18T12:52:49.606Z,10.48
2022-12-18T12:55:24.267Z,10.13
2022-12-18T12:58:01.943Z,10.00
2022-12-18T13:00:34.719Z,10.25
2022-12-18T13:03:11.781Z,10.68
2022-12-18T13:05:46.185Z,10.07
2022-12-18T13:08:26.677Z,10.75
2022-12-18T13:11:20.474Z,10.60
2022-12-18T13:13:53.147Z,11.15
2022-12-18T13:16:24.040Z,11.10
2022-12-18T13:18:55.314Z,11.68
2022-12-18T13:21:28.192Z,10.95
2022-12-18T13:23:58.402Z,11.80
2022-12-18T13:26:39.438Z,11.02
2022-12-18T13:29:09.458Z,11.02
2022-12-18T13:32:02.215Z,11.57
2022-12-18T13:34:34.348Z,11.45
2022-12-18T13:37:45.551Z,10.65
2022-12-18T13:40:57.740Z,12.98
2022-12-18T13:43:32.744Z,11.23
2022-12-18T13:46:08.422Z,12.45
2022-12-18T13:48:41.975Z,11.95
2022-12-18T13:51:14.563Z,12.50
2022-12-18T13:53:48.012Z,12.57
2022-12-18T13:56:23.322Z,12.27
2022-12-18T13:59:13.813Z,12.38
2022-12-18T14:01:52.997Z,12.52
2022-12-18T14:04:26.525Z,13.38
2022-12-18T14:06:59.364Z,12.23
2022-12-18T14:09:31.780Z,12.47
2022-12-18T14:12:16.095Z,13.00
2022-12-18T14:14:51.523Z,12.77
2022-12-18T14:17:24.724Z,12.90
2022-12-18T14:19:55.139Z,13.68
2022-12-18T14:22:28.972Z,12.65
2022-12-18T14:25:17.473Z,12.90
2022-12-18T14:27:48.818Z,13.45
2022-12-18T14:30:39.437Z,12.05
2022-12-18T14:33:13.166Z,13.75
2022-12-18T14:35:44.737Z,13.32
2022-12-18T14:38:26.796Z,12.50
2022-12-18T14:40:57.540Z,12.63
2022-12-18T14:43:27.251Z,12.50
2022-12-18T14:46:00.106Z,12.20
2022-12-18T14:48:39.679Z,13.07
2022-12-18T14:51:10.865Z,11.77
2022-12-18T14:53:42.682Z,12.77
2022-12-18T14:56:19.905Z,12.85
2022-12-18T14:58:51.336Z,13.75
2022-12-18T15:01:32.334Z,13.05
2022-12-18T15:04:02.940Z,12.02
2022-12-18T15:06:44.756Z,13.15
2022-12-18T15:09:26.138Z,12.52
2022-12-18T15:12:00.224Z,12.55
2022-12-18T15:14:38.586Z,14.57
2022-12-18T15:17:20.368Z,13.30
2022-12-18T15:19:51.155Z,15.30
2022-12-18T15:22:29.857Z,14.10
2022-12-18T15:25:00.650Z,13.80
2022-12-18T15:27:33.240Z,14.00
2022-12-18T15:30:21.802Z,14.25
2022-12-18T15:32:55.627Z,14.13
2022-12-18T15:35:27.739Z,15.50
2022-12-18T15:37:57.373Z,14.85
2022-12-18T15:40:27.655Z,13.70
2022-12-18T15:43:10.731Z,14.73
2022-12-18T15:45:40.508Z,14.25
2022-12-18T15:48:24.956Z,14.85
2022-12-18T15:50:58.288Z,14.43
2022-12-18T15:53:28.467Z,15.27
2022-12-18T15:56:10.585Z,14.35
2022-12-18T15:58:40.183Z,14.90
2022-12-18T16:01:11.744Z,15.23
2022-12-18T16:03:44.616Z,14.80
2022-12-18T16:06:14.699Z,14.90
2022-12-18T16:08:44.372Z,15.18
2022-12-18T16:11:38.971Z,15.65
2022-12-18T16:14:10.464Z,15.05
2022-12-18T16:16:40.067Z,15.60
2022-12-18T16:19:12.353Z,15.30
2022-12-18T16:21:41.965Z,16.25
2022-12-18T16:24:17.023Z,15.55
2022-12-18T16:26:47.381Z,15.43
2022-12-18T16:29:17.171Z,15.45
2022-12-18T16:31:46.824Z,16.27
2022-12-18T16:34:23.454Z,15.30
2022-12-18T16:37:01.682Z,16.23
2022-12-18T16:39:35.462Z,15.55
2022-12-18T16:42:06.222Z,15.93
2022-12-18T16:44:36.044Z,16.30
2022-12-18T16:47:06.356Z,15.77
2022-12-18T16:49:40.978Z,16.38
2022-12-18T16:52:10.920Z,16.20
2022-12-18T16:54:40.514Z,17.50
2022-12-18T16:57:10.154Z,17.77
2022-12-18T16:59:39.688Z,17.00
2022-12-18T17:02:12.715Z,17.38
2022-12-18T17:04:45.243Z,16.17
2022-12-18T17:07:15.081Z,17.83
2022-12-18T17:09:45.077Z,16.58
2022-12-18T17:12:14.806Z,18.33
2022-12-18T17:14:44.360Z,18.80
2022-12-18T17:17:23.396Z,17.83
2022-12-18T17:19:56.066Z,17.58
2022-12-18T17:22:25.885Z,18.13
2022-12-18T17:24:55.467Z,17.92
2022-12-18T17:27:25.197Z,18.38
2022-12-18T17:29:54.804Z,19.02
2022-12-18T17:32:24.378Z,17.73
2022-12-18T17:34:56.618Z,19.08
2022-12-18T17:37:26.190Z,19.27
2022-12-18T17:39:56.056Z,18.45
2022-12-18T17:42:26.347Z,20.00
2022-12-18T17:44:55.938Z,18.25
2022-12-18T17:47:25.569Z,20.45
2022-12-18T17:49:57.770Z,20.90
2022-12-18T17:52:27.388Z,21.02
2022-12-18T17:54:56.967Z,19.65
2022-12-18T17:57:26.534Z,19.73
2022-12-18T17:59:56.067Z,19.73
2022-12-18T18:02:25.782Z,20.08
2022-12-18T18:04:58.780Z,21.33
2022-12-18T18:07:28.420Z,20.45
2022-12-18T18:09:58.051Z,19.40
2022-12-18T18:12:40.107Z,21.10
2022-12-18T18:15:11.030Z,20.80
2022-12-18T18:17:41.286Z,20.48
2022-12-18T18:20:22.178Z,19.10
2022-12-18T18:22:52.222Z,19.55
2022-12-18T18:25:21.832Z,19.58
2022-12-18T18:27:52.143Z,21.75
2022-12-18T18:30:22.469Z,19.80
2022-12-18T18:32:52.805Z,19.73
2022-12-18T18:35:52.759Z,21.45
2022-12-18T18:38:15.414Z,19.92
2022-12-18T18:40:44.981Z,20.77
2022-12-18T18:43:15.703Z,21.75
2022-12-18T18:45:45.321Z,20.50
2022-12-18T18:48:16.872Z,21.20
2022-12-18T18:50:58.768Z,22.38
2022-12-18T18:53:28.464Z,21.38
2022-12-18T18:56:37.446Z,21.55
2022-12-18T18:58:51.855Z,21.15
2022-12-18T19:01:23.134Z,21.63
2022-12-18T19:03:53.419Z,23.48
2022-12-18T19:06:28.033Z,21.38
2022-12-18T19:08:58.623Z,21.13
2022-12-18T19:11:41.360Z,20.98
2022-12-18T19:14:13.266Z,21.42
2022-12-18T19:16:43.483Z,21.98
2022-12-18T19:19:14.064Z,23.85
2022-12-18T19:21:46.282Z,20.38
2022-12-18T19:24:15.813Z,21.50
2022-12-18T19:26:45.486Z,22.63
2022-12-18T19:29:15.994Z,20.90
2022-12-18T19:31:45.637Z,21.25
2022-12-18T19:34:16.372Z,21.70
2022-12-18T19:36:48.738Z,22.85
2022-12-18T19:39:20.671Z,20.33
2022-12-18T19:41:51.834Z,21.48
2022-12-18T19:44:21.735Z,22.70
2022-12-18T19:46:53.154Z,21.17
2022-12-18T19:49:22.700Z,23.20
2022-12-18T19:51:55.223Z,20.55
2022-12-18T19:54:24.801Z,21.02
2022-12-18T19:56:55.876Z,20.75
2022-12-18T19:59:25.665Z,21.10
2022-12-18T20:01:56.157Z,21.30
2022-12-18T20:04:25.925Z,21.67
2022-12-18T20:06:59.745Z,21.40
2022-12-18T20:09:29.359Z,18.73
2022-12-18T20:11:59.407Z,21.02
2022-12-18T20:14:29.186Z,19.45
2022-12-18T20:16:58.841Z,20.42
2022-12-18T20:19:30.227Z,21.73
2022-12-18T20:22:02.338Z,20.40
2022-12-18T20:24:32.112Z,20.77
2022-12-18T20:27:01.826Z,22.83
2022-12-18T20:29:31.482Z,21.45
2022-12-18T20:32:01.068Z,21.35
2022-12-18T20:34:30.617Z,22.05
2022-12-18T20:37:02.956Z,23.95
2022-12-18T20:39:33.526Z,20.48
2022-12-18T20:42:03.280Z,20.73
2022-12-18T20:44:35.928Z,21.40
2022-12-18T20:47:08.578Z,22.08
2022-12-18T20:49:39.564Z,20.65
2022-12-18T20:52:16.395Z,21.10
2022-12-18T20:54:47.770Z,22.08
2022-12-18T20:57:17.404Z,23.33
2022-12-18T20:59:48.516Z,22.17
2022-12-18T21:02:18.674Z,19.58
2022-12-18T21:04:48.650Z,22.33
2022-12-18T21:07:20.814Z,21.85
2022-12-18T21:09:50.386Z,21.88
2022-12-18T21:12:45.232Z,20.05
2022-12-18T21:15:18.091Z,20.67
2022-12-18T21:17:47.765Z,20.55
2022-12-18T21:20:18.877Z,20.48
2022-12-18T21:22:51.548Z,20.90
2022-12-18T21:25:23.542Z,20.63
2022-12-18T21:27:53.081Z,21.65
2022-12-18T21:30:22.934Z,22.80
2022-12-18T21:32:52.473Z,20.27
2022-12-18T21:35:22.369Z,21.55
2022-12-18T21:37:56.642Z,19.55
2022-12-18T21:40:26.932Z,20.67
2022-12-18T21:43:09.076Z,20.92
2022-12-18T21:45:39.026Z,20.45
2022-12-18T21:48:08.923Z,21.63
2022-12-18T21:50:38.478Z,21.77
2022-12-18T21:53:10.610Z,20.13
2022-12-18T21:55:40.148Z,23.27
2022-12-18T21:58:09.699Z,22.00
2022-12-18T22:00:39.214Z,23.58
2022-12-18T22:03:08.779Z,22.55
2022-12-18T22:05:51.419Z,22.20
2022-12-18T22:08:42.231Z,25.05
2022-12-18T22:11:15.138Z,21.92
2022-12-18T22:13:46.917Z,23.25
2022-12-18T22:16:16.549Z,21.50
2022-12-18T22:18:46.214Z,22.30
2022-12-18T22:21:29.020Z,26.58
2022-12-18T22:24:02.946Z,23.23
2022-12-18T22:26:39.485Z,23.75
2022-12-18T22:29:22.853Z,23.65
2022-12-18T22:31:52.713Z,26.02
2022-12-18T22:34:23.344Z,23.17
2022-12-18T22:36:53.215Z,24.38
2022-12-18T22:39:26.809Z,23.75
2022-12-18T22:41:58.847Z,26.10
2022-12-18T22:44:28.660Z,25.13
2022-12-18T22:47:05.669Z,24.65
2022-12-18T22:49:36.351Z,25.02
2022-12-18T22:52:06.076Z,24.20
2022-12-18T22:54:38.633Z,23.08
2022-12-18T22:57:08.219Z,26.10
2022-12-18T22:59:37.828Z,23.48
2022-12-18T23:02:08.421Z,24.45
2022-12-18T23:04:38.199Z,24.38
2022-12-18T23:07:08.167Z,24.73
2022-12-18T23:09:40.344Z,25.77
2022-12-18T23:12:10.542Z,26.35
2022-12-18T23:14:40.179Z,24.20
2022-12-18T23:17:09.802Z,25.13
2022-12-18T23:19:44.074Z,27.48
2022-12-18T23:22:16.842Z,25.35
2022-12-18T23:24:49.080Z,24.83
2022-12-18T23:27:18.661Z,25.52
2022-12-18T23:29:48.220Z,25.85
2022-12-18T23:32:19.000Z,24.42
2022-12-18T23:34:48.605Z,23.23
2022-12-18T23:37:35.365Z,26.65
2022-12-18T23:40:11.692Z,24.95
2022-12-18T23:42:41.272Z,25.73
2022-12-18T23:45:17.638Z,26.98
2022-12-18T23:47:50.959Z,25.27
2022-12-18T23:50:23.610Z,25.00
2022-12-18T23:53:04.997Z,26.80
2022-12-18T23:55:42.071Z,27.35
2022-12-18T23:58:18.854Z,25.45
